createdAt,value
2022-10-06T00:01:19.868Z,4.13
2022-10-06T00:03:47.120Z,4.20
2022-10-06T00:06:17.036Z,4.20
2022-10-06T00:08:45.328Z,4.10
2022-10-06T00:11:14.240Z,4.57
2022-10-06T00:13:42.175Z,4.30
2022-10-06T00:16:17.570Z,4.13
2022-10-06T00:18:45.368Z,4.63
2022-10-06T00:21:12.291Z,4.37
2022-10-06T00:23:39.155Z,4.40
2022-10-06T00:26:06.301Z,4.83
2022-10-06T00:28:33.740Z,4.57
2022-10-06T00:31:03.663Z,4.30
2022-10-06T00:33:30.599Z,4.43
2022-10-06T00:35:58.797Z,4.37
2022-10-06T00:38:27.357Z,4.07
2022-10-06T00:40:55.737Z,4.60
2022-10-06T00:43:57.014Z,4.93
2022-10-06T00:46:47.317Z,4.00
2022-10-06T00:49:28.052Z,4.67
2022-10-06T00:52:00.580Z,4.13
2022-10-06T00:54:28.561Z,5.10
2022-10-06T00:56:55.765Z,4.10
2022-10-06T00:59:22.641Z,4.50
2022-10-06T01:02:15.665Z,4.30
2022-10-06T01:04:55.823Z,3.97
2022-10-06T01:07:26.881Z,3.40
2022-10-06T01:09:55.211Z,3.83
2022-10-06T01:15:04.971Z,4.00
2022-10-06T01:17:52.372Z,3.83
2022-10-06T01:20:20.658Z,4.40
2022-10-06T01:23:02.675Z,4.17
2022-10-06T01:25:29.760Z,3.90
2022-10-06T01:27:58.626Z,3.43
2022-10-06T01:30:36.498Z,3.73
2022-10-06T01:33:04.037Z,3.67
2022-10-06T01:35:32.782Z,3.73
2022-10-06T01:38:00.602Z,4.70
2022-10-06T01:40:30.212Z,3.90
2022-10-06T01:43:00.199Z,3.63
2022-10-06T01:45:28.077Z,4.20
2022-10-06T01:47:54.968Z,4.20
2022-10-06T01:50:22.693Z,3.70
2022-10-06T01:52:49.773Z,3.50
2022-10-06T01:55:17.285Z,4.00
2022-10-06T01:57:44.427Z,3.77
2022-10-06T02:00:12.908Z,4.20
2022-10-06T02:02:40.753Z,3.50
2022-10-06T02:05:08.023Z,3.43
2022-10-06T02:07:38.279Z,3.97
2022-10-06T02:10:06.776Z,4.40
2022-10-06T02:12:35.165Z,3.60
2022-10-06T02:15:02.446Z,3.93
2022-10-06T02:17:29.605Z,4.13
2022-10-06T02:19:56.576Z,3.53
2022-10-06T02:22:23.496Z,3.43
2022-10-06T02:24:51.020Z,3.20
2022-10-06T02:27:18.331Z,3.77
2022-10-06T02:29:45.308Z,3.77
2022-10-06T02:32:13.925Z,4.07
2022-10-06T02:34:41.052Z,2.97
2022-10-06T02:37:08.670Z,3.63
2022-10-06T02:39:35.714Z,4.10
2022-10-06T02:42:05.229Z,3.27
2022-10-06T02:44:32.117Z,3.17
2022-10-06T02:46:59.481Z,1.87
2022-10-06T02:49:26.575Z,2.33
2022-10-06T02:51:53.492Z,2.60
2022-10-06T02:54:20.351Z,2.80
2022-10-06T02:56:50.150Z,2.73
2022-10-06T02:59:17.075Z,3.90
2022-10-06T03:01:44.993Z,4.00
2022-10-06T03:04:16.188Z,3.77
2022-10-06T03:06:43.568Z,3.53
2022-10-06T03:09:19.163Z,3.40
2022-10-06T03:11:46.390Z,3.03
2022-10-06T03:14:21.915Z,2.20
2022-10-06T03:16:51.819Z,1.67
2022-10-06T03:19:25.719Z,2.23
2022-10-06T03:21:53.468Z,2.00
2022-10-06T03:24:22.869Z,1.87
2022-10-06T03:26:54.417Z,1.97
2022-10-06T03:29:21.362Z,1.90
2022-10-06T03:31:54.627Z,2.63
2022-10-06T03:34:21.563Z,1.70
2022-10-06T03:36:48.533Z,1.77
2022-10-06T03:39:18.867Z,2.00
2022-10-06T03:41:46.175Z,2.07
2022-10-06T03:44:14.425Z,2.00
2022-10-06T03:46:43.179Z,1.90
2022-10-06T03:49:10.815Z,2.50
2022-10-06T03:51:40.442Z,2.30
2022-10-06T03:54:12.529Z,2.20
2022-10-06T03:56:42.947Z,1.97
2022-10-06T03:59:16.413Z,2.20
2022-10-06T04:01:47.510Z,1.80
2022-10-06T04:04:22.732Z,2.37
2022-10-06T04:06:53.856Z,1.40
2022-10-06T04:09:21.695Z,2.00
2022-10-06T04:11:48.755Z,1.40
2022-10-06T04:14:16.833Z,1.27
2022-10-06T04:16:48.623Z,1.33
2022-10-06T04:19:20.322Z,1.20
2022-10-06T04:21:50.332Z,1.53
2022-10-06T04:24:21.128Z,1.70
2022-10-06T04:26:50.043Z,1.20
2022-10-06T04:29:18.353Z,1.00
2022-10-06T04:31:49.219Z,1.30
2022-10-06T04:34:34.679Z,1.13
2022-10-06T04:37:01.600Z,1.07
2022-10-06T04:39:28.520Z,0.80
2022-10-06T04:41:55.629Z,1.00
2022-10-06T04:44:26.705Z,0.93
2022-10-06T04:46:55.812Z,1.10
2022-10-06T04:49:22.711Z,0.83
2022-10-06T04:51:52.435Z,1.87
2022-10-06T04:54:19.716Z,1.10
2022-10-06T04:56:49.915Z,0.60
2022-10-06T04:59:18.849Z,1.00
2022-10-06T05:01:46.988Z,0.80
2022-10-06T05:04:14.810Z,1.10
2022-10-06T05:06:42.911Z,1.10
2022-10-06T05:09:14.811Z,1.03
2022-10-06T05:11:48.735Z,1.17
2022-10-06T05:14:18.928Z,0.83
2022-10-06T05:16:48.570Z,1.70
2022-10-06T05:19:16.609Z,1.30
2022-10-06T05:21:43.541Z,1.23
2022-10-06T05:24:14.256Z,1.03
2022-10-06T05:26:41.569Z,1.13
2022-10-06T05:29:11.615Z,1.23
2022-10-06T05:31:41.170Z,0.83
2022-10-06T05:34:08.424Z,1.13
2022-10-06T05:36:36.195Z,1.80
2022-10-06T05:39:05.023Z,1.23
2022-10-06T05:41:38.169Z,1.07
2022-10-06T05:44:08.675Z,1.07
2022-10-06T05:46:37.948Z,0.87
2022-10-06T05:49:09.093Z,1.57
2022-10-06T05:51:38.835Z,1.30
2022-10-06T05:54:09.739Z,1.13
2022-10-06T05:56:38.228Z,1.67
2022-10-06T05:59:05.960Z,1.23
2022-10-06T06:01:42.370Z,1.43
2022-10-06T06:04:26.545Z,1.20
2022-10-06T06:06:56.283Z,1.27
2022-10-06T06:09:26.254Z,1.00
2022-10-06T06:11:55.016Z,1.03
2022-10-06T06:15:00.080Z,1.30
2022-10-06T06:17:33.305Z,1.67
2022-10-06T06:20:02.160Z,1.30
2022-10-06T06:22:29.099Z,1.37
2022-10-06T06:24:55.964Z,1.83
2022-10-06T06:27:23.346Z,1.00
2022-10-06T06:29:50.399Z,1.67
2022-10-06T06:32:17.430Z,1.50
2022-10-06T06:34:45.093Z,1.83
2022-10-06T06:37:15.216Z,1.90
2022-10-06T06:39:44.956Z,1.60
2022-10-06T06:42:12.082Z,1.30
2022-10-06T06:44:39.518Z,1.80
2022-10-06T06:47:13.900Z,1.60
2022-10-06T06:49:42.955Z,1.70
2022-10-06T06:52:09.975Z,1.40
2022-10-06T06:54:40.508Z,1.90
2022-10-06T06:57:11.901Z,1.73
2022-10-06T06:59:38.939Z,2.20
2022-10-06T07:02:09.855Z,1.90
2022-10-06T07:04:38.856Z,2.80
2022-10-06T07:07:09.733Z,1.50
2022-10-06T07:09:37.529Z,3.13
2022-10-06T07:12:11.369Z,2.40
2022-10-06T07:15:00.569Z,1.50
2022-10-06T07:17:47.924Z,2.37
2022-10-06T07:20:34.193Z,2.40
2022-10-06T07:23:19.296Z,1.80
2022-10-06T07:25:46.418Z,2.23
2022-10-06T07:28:16.875Z,2.60
2022-10-06T07:30:44.862Z,2.00
2022-10-06T07:33:18.761Z,2.23
2022-10-06T07:35:46.795Z,2.47
2022-10-06T07:38:16.139Z,2.17
2022-10-06T07:41:14.602Z,2.00
2022-10-06T07:43:33.718Z,3.03
2022-10-06T07:46:01.171Z,2.30
2022-10-06T07:48:32.551Z,2.83
2022-10-06T07:51:02.169Z,2.57
2022-10-06T07:53:36.020Z,2.13
2022-10-06T07:56:09.122Z,2.67
2022-10-06T07:58:40.908Z,2.30
2022-10-06T08:01:11.115Z,2.83
2022-10-06T08:03:38.478Z,2.77
2022-10-06T08:06:05.477Z,2.73
2022-10-06T08:08:37.881Z,1.70
2022-10-06T08:11:08.158Z,2.57
2022-10-06T08:13:42.142Z,2.30
2022-10-06T08:16:11.507Z,2.23
2022-10-06T08:18:46.571Z,3.00
2022-10-06T08:21:17.803Z,2.60
2022-10-06T08:23:46.802Z,3.50
2022-10-06T08:26:15.728Z,2.10
2022-10-06T08:28:52.683Z,2.50
2022-10-06T08:31:22.745Z,2.83
2022-10-06T08:33:56.051Z,2.60
2022-10-06T08:36:31.063Z,2.20
2022-10-06T08:38:59.547Z,2.57
2022-10-06T08:41:48.638Z,2.23
2022-10-06T08:44:19.469Z,2.37
2022-10-06T08:47:04.243Z,2.90
2022-10-06T08:49:47.093Z,2.50
2022-10-06T08:52:36.570Z,2.50
2022-10-06T08:55:30.612Z,1.80
2022-10-06T08:58:23.279Z,4.00
2022-10-06T09:00:50.741Z,2.70
2022-10-06T09:03:28.590Z,2.13
2022-10-06T09:06:12.552Z,2.50
2022-10-06T09:08:51.258Z,3.10
2022-10-06T09:11:37.440Z,2.80
2022-10-06T09:14:24.448Z,2.87
2022-10-06T09:17:00.669Z,3.40
2022-10-06T09:19:58.652Z,2.30
2022-10-06T09:22:31.628Z,2.57
2022-10-06T09:25:28.066Z,2.43
2022-10-06T09:28:00.815Z,2.47
2022-10-06T09:30:27.785Z,2.23
2022-10-06T09:33:03.782Z,2.30
2022-10-06T09:35:32.665Z,3.43
2022-10-06T09:38:08.801Z,2.77
2022-10-06T09:40:51.212Z,2.80
2022-10-06T09:43:29.065Z,2.07
2022-10-06T09:46:21.172Z,2.40
2022-10-06T09:48:48.043Z,2.37
2022-10-06T09:51:17.843Z,2.30
2022-10-06T09:54:10.474Z,2.83
2022-10-06T09:56:42.334Z,2.70
2022-10-06T09:59:21.741Z,2.30
2022-10-06T10:01:55.329Z,2.57
2022-10-06T10:04:37.528Z,3.83
2022-10-06T10:07:25.565Z,2.50
2022-10-06T10:09:54.458Z,2.93
2022-10-06T10:12:28.630Z,3.63
2022-10-06T10:15:19.650Z,3.03
2022-10-06T10:17:53.060Z,2.13
2022-10-06T10:20:29.864Z,2.23
2022-10-06T10:23:00.693Z,2.70
2022-10-06T10:25:44.700Z,2.20
2022-10-06T10:28:14.119Z,3.00
2022-10-06T10:31:05.231Z,3.03
2022-10-06T10:34:12.654Z,2.40
2022-10-06T10:37:04.850Z,2.83
2022-10-06T10:39:46.094Z,2.90
2022-10-06T10:42:56.197Z,2.60
2022-10-06T10:45:35.368Z,2.87
2022-10-06T10:48:23.170Z,2.90
2022-10-06T10:51:13.108Z,3.37
2022-10-06T10:53:55.781Z,3.10
2022-10-06T10:56:26.331Z,2.70
2022-10-06T10:59:04.162Z,3.10
2022-10-06T11:01:38.970Z,2.93
2022-10-06T11:04:11.899Z,1.97
2022-10-06T11:06:55.859Z,2.27
2022-10-06T11:09:58.530Z,2.70
2022-10-06T11:13:00.333Z,2.70
2022-10-06T11:16:00.364Z,2.83
2022-10-06T11:19:02.580Z,3.00
2022-10-06T11:22:10.940Z,3.37
2022-10-06T11:24:47.536Z,2.50
2022-10-06T11:27:31.519Z,2.87
2022-10-06T11:30:07.261Z,1.90
2022-10-06T11:33:01.518Z,2.17
2022-10-06T11:35:35.317Z,2.23
2022-10-06T11:38:30.088Z,2.43
2022-10-06T11:41:15.914Z,2.50
2022-10-06T11:44:00.777Z,2.70
2022-10-06T11:47:11.215Z,2.27
2022-10-06T11:49:56.016Z,2.60
2022-10-06T11:52:23.828Z,2.40
2022-10-06T11:55:07.759Z,2.00
2022-10-06T11:58:08.710Z,3.00
2022-10-06T12:00:46.704Z,2.67
2022-10-06T12:03:28.973Z,3.00
2022-10-06T12:05:57.053Z,2.73
2022-10-06T12:08:40.788Z,3.17
2022-10-06T12:11:42.951Z,4.10
2022-10-06T12:16:55.342Z,2.40
2022-10-06T12:17:58.418Z,2.13
2022-10-06T12:21:06.435Z,2.17
2022-10-06T12:23:52.777Z,2.37
2022-10-06T12:26:54.186Z,2.33
2022-10-06T12:29:29.670Z,1.80
2022-10-06T12:32:24.228Z,2.27
2022-10-06T12:35:08.607Z,2.50
2022-10-06T12:37:56.166Z,2.10
2022-10-06T12:40:49.973Z,2.20
2022-10-06T12:43:20.872Z,2.10
2022-10-06T12:46:32.693Z,2.10
2022-10-06T12:49:36.837Z,2.30
2022-10-06T12:52:47.306Z,3.20
2022-10-06T12:55:35.370Z,2.50
2022-10-06T12:58:02.321Z,2.20
2022-10-06T13:00:40.386Z,2.40
2022-10-06T13:03:16.395Z,1.83
2022-10-06T13:05:51.237Z,1.90
2022-10-06T13:08:30.821Z,1.67
2022-10-06T13:11:27.038Z,1.60
2022-10-06T13:14:07.153Z,1.80
2022-10-06T13:16:40.956Z,1.97
2022-10-06T13:19:25.478Z,2.03
2022-10-06T13:21:53.598Z,2.33
2022-10-06T13:24:26.700Z,1.80
2022-10-06T13:26:54.215Z,1.90
2022-10-06T13:29:25.319Z,1.83
2022-10-06T13:31:55.593Z,1.80
2022-10-06T13:34:43.016Z,2.00
2022-10-06T13:37:15.027Z,2.73
2022-10-06T13:39:41.971Z,2.17
2022-10-06T13:42:14.232Z,2.60
2022-10-06T13:44:57.435Z,2.20
2022-10-06T13:47:27.044Z,2.80
2022-10-06T13:50:06.146Z,1.90
2022-10-06T13:52:46.507Z,1.90
2022-10-06T13:55:25.848Z,1.77
2022-10-06T13:58:04.847Z,2.23
2022-10-06T14:00:51.152Z,2.13
2022-10-06T14:06:17.480Z,2.03
2022-10-06T14:08:54.138Z,2.40
2022-10-06T14:11:28.067Z,1.87
2022-10-06T14:14:04.669Z,2.60
2022-10-06T14:16:31.928Z,2.10
2022-10-06T14:19:05.117Z,1.90
2022-10-06T14:21:35.506Z,1.90
2022-10-06T14:24:19.330Z,2.17
2022-10-06T14:26:50.766Z,2.50
2022-10-06T14:29:19.275Z,2.57
2022-10-06T14:31:47.036Z,2.33
2022-10-06T14:34:17.069Z,1.80
2022-10-06T14:36:47.543Z,2.57
2022-10-06T14:39:15.652Z,2.30
2022-10-06T14:41:42.612Z,1.97
2022-10-06T14:44:12.160Z,2.00
2022-10-06T14:46:47.664Z,2.53
2022-10-06T14:49:14.900Z,2.77
2022-10-06T14:51:43.685Z,2.20
2022-10-06T14:54:11.359Z,1.90
2022-10-06T14:56:40.017Z,1.70
2022-10-06T14:59:10.412Z,2.00
2022-10-06T15:01:39.886Z,2.20
2022-10-06T15:04:14.404Z,2.43
2022-10-06T15:07:00.829Z,2.00
2022-10-06T15:09:30.818Z,2.60
2022-10-06T15:11:59.419Z,1.83
2022-10-06T15:14:28.318Z,1.73
2022-10-06T15:16:55.947Z,2.40
2022-10-06T15:19:22.816Z,2.80
2022-10-06T15:21:49.791Z,1.93
2022-10-06T15:24:19.043Z,2.27
2022-10-06T15:27:05.482Z,2.00
2022-10-06T15:29:34.744Z,2.10
2022-10-06T15:32:03.555Z,2.33
2022-10-06T15:34:33.449Z,2.10
2022-10-06T15:37:01.594Z,2.30
2022-10-06T15:39:31.440Z,2.20
2022-10-06T15:41:58.990Z,2.60
2022-10-06T15:44:26.202Z,2.10
2022-10-06T15:46:56.589Z,1.87
2022-10-06T15:49:32.811Z,2.43
2022-10-06T15:52:03.681Z,2.30
2022-10-06T15:54:45.846Z,1.73
2022-10-06T15:57:19.486Z,2.27
2022-10-06T15:59:47.702Z,1.80
2022-10-06T16:02:16.748Z,1.93
2022-10-06T16:05:08.877Z,2.37
2022-10-06T16:07:35.763Z,1.63
2022-10-06T16:10:02.723Z,1.57
2022-10-06T16:12:29.603Z,1.87
2022-10-06T16:14:56.477Z,2.30
2022-10-06T16:17:23.353Z,2.33
2022-10-06T16:19:50.213Z,2.50
2022-10-06T16:22:19.330Z,2.33
2022-10-06T16:24:46.371Z,2.43
2022-10-06T16:27:15.783Z,4.90
2022-10-06T16:29:42.725Z,3.20
2022-10-06T16:32:09.746Z,3.03
2022-10-06T16:34:36.651Z,4.10
2022-10-06T16:37:03.724Z,4.13
2022-10-06T16:39:30.673Z,3.27
2022-10-06T16:41:57.762Z,2.80
2022-10-06T16:44:24.682Z,4.00
2022-10-06T16:46:51.620Z,2.90
2022-10-06T16:49:18.643Z,3.40
2022-10-06T16:51:46.128Z,3.00
2022-10-06T16:54:16.981Z,4.13
2022-10-06T16:56:51.705Z,2.73
2022-10-06T16:59:25.794Z,3.17
2022-10-06T17:01:52.815Z,2.10
2022-10-06T17:04:24.792Z,4.50
2022-10-06T17:06:53.467Z,3.10
2022-10-06T17:09:23.899Z,3.17
2022-10-06T17:11:57.369Z,2.47
2022-10-06T17:14:25.045Z,3.90
2022-10-06T17:16:54.263Z,3.47
2022-10-06T17:19:24.353Z,3.77
2022-10-06T17:21:58.225Z,3.30
2022-10-06T17:24:27.913Z,4.20
2022-10-06T17:26:56.418Z,4.60
2022-10-06T17:29:24.115Z,3.57
2022-10-06T17:31:58.786Z,4.10
2022-10-06T17:34:31.751Z,3.30
2022-10-06T17:37:01.132Z,4.40
2022-10-06T17:39:28.033Z,3.90
2022-10-06T17:41:54.910Z,2.70
2022-10-06T17:44:26.109Z,3.50
2022-10-06T17:46:56.468Z,3.80
2022-10-06T17:49:24.495Z,2.73
2022-10-06T17:51:53.521Z,5.80
2022-10-06T17:54:23.576Z,14.27
2022-10-06T17:56:54.133Z,19.60
2022-10-06T17:59:24.502Z,24.23
2022-10-06T18:01:52.134Z,23.57
2022-10-06T18:04:19.829Z,16.27
2022-10-06T18:06:47.691Z,7.70
2022-10-06T18:09:15.880Z,3.50
2022-10-06T18:11:45.868Z,2.77
2022-10-06T18:14:18.609Z,3.10
2022-10-06T18:16:56.632Z,3.60
2022-10-06T18:19:30.809Z,5.20
2022-10-06T18:22:11.600Z,3.80
2022-10-06T18:24:39.919Z,8.23
2022-10-06T18:27:08.177Z,6.80
2022-10-06T18:29:38.073Z,4.23
2022-10-06T18:36:12.146Z,3.00
2022-10-06T18:37:41.247Z,3.27
2022-10-06T18:40:09.870Z,2.90
2022-10-06T18:42:37.864Z,3.03
2022-10-06T18:45:24.629Z,3.30
2022-10-06T18:48:10.290Z,2.77
2022-10-06T18:50:37.156Z,3.23
2022-10-06T18:53:04.304Z,2.93
2022-10-06T18:55:31.837Z,2.77
2022-10-06T18:57:58.776Z,2.70
2022-10-06T19:00:26.305Z,3.33
2022-10-06T19:02:55.471Z,2.90
2022-10-06T19:05:23.138Z,3.63
2022-10-06T19:07:53.523Z,3.63
2022-10-06T19:10:20.398Z,3.23
2022-10-06T19:12:48.316Z,2.17
2022-10-06T19:15:20.396Z,2.87
2022-10-06T19:17:48.150Z,2.60
2022-10-06T19:20:15.035Z,3.70
2022-10-06T19:22:43.363Z,5.40
2022-10-06T19:25:10.297Z,5.60
2022-10-06T19:27:37.223Z,4.80
2022-10-06T19:30:05.133Z,3.37
2022-10-06T19:32:32.637Z,2.50
2022-10-06T19:35:00.101Z,2.03
2022-10-06T19:37:29.417Z,3.30
2022-10-06T19:39:56.410Z,2.67
2022-10-06T19:42:42.072Z,3.00
2022-10-06T19:45:11.590Z,2.40
2022-10-06T19:47:38.542Z,3.27
2022-10-06T19:50:11.672Z,2.83
2022-10-06T19:52:40.625Z,2.87
2022-10-06T19:55:07.586Z,3.53
2022-10-06T19:57:34.808Z,3.23
2022-10-06T20:00:01.699Z,2.50
2022-10-06T20:02:28.898Z,2.93
2022-10-06T20:04:56.517Z,2.80
2022-10-06T20:07:27.435Z,2.80
2022-10-06T20:09:54.799Z,3.03
2022-10-06T20:12:24.882Z,2.50
2022-10-06T20:14:53.584Z,2.70
2022-10-06T20:17:21.035Z,3.03
2022-10-06T20:19:48.062Z,2.40
2022-10-06T20:22:14.961Z,2.73
2022-10-06T20:24:41.884Z,2.13
2022-10-06T20:27:09.042Z,2.70
2022-10-06T20:29:36.019Z,9.43
2022-10-06T20:32:05.012Z,8.77
2022-10-06T20:34:32.261Z,7.67
2022-10-06T20:37:02.220Z,5.63
2022-10-06T20:39:50.313Z,6.60
2022-10-06T20:42:18.560Z,4.77
2022-10-06T20:44:45.975Z,4.57
2022-10-06T20:47:13.858Z,3.00
2022-10-06T20:49:42.445Z,3.37
2022-10-06T20:52:09.971Z,3.53
2022-10-06T20:54:37.304Z,3.70
2022-10-06T20:57:06.353Z,2.90
2022-10-06T20:59:36.587Z,2.33
2022-10-06T21:02:05.543Z,2.73
2022-10-06T21:04:34.618Z,2.47
2022-10-06T21:07:04.023Z,2.93
2022-10-06T21:09:31.048Z,2.67
2022-10-06T21:11:58.087Z,2.97
2022-10-06T21:14:25.151Z,2.63
2022-10-06T21:16:52.580Z,3.30
2022-10-06T21:19:20.074Z,2.40
2022-10-06T21:21:50.748Z,3.07
2022-10-06T21:24:18.095Z,3.30
2022-10-06T21:26:45.163Z,2.73
2022-10-06T21:29:16.197Z,1.97
2022-10-06T21:31:45.186Z,2.73
2022-10-06T21:34:14.497Z,2.33
2022-10-06T21:36:42.375Z,2.03
2022-10-06T21:39:09.579Z,2.10
2022-10-06T21:41:39.645Z,2.63
2022-10-06T21:44:11.758Z,2.70
2022-10-06T21:46:47.742Z,1.93
2022-10-06T21:49:24.474Z,2.40
2022-10-06T21:51:54.959Z,2.60
2022-10-06T21:54:23.287Z,2.17
2022-10-06T21:56:50.403Z,2.50
2022-10-06T21:59:17.589Z,2.80
2022-10-06T22:01:46.516Z,2.77
2022-10-06T22:04:15.228Z,2.20
2022-10-06T22:06:44.021Z,3.20
2022-10-06T22:09:16.143Z,2.50
2022-10-06T22:11:43.506Z,2.63
2022-10-06T22:14:17.272Z,2.37
2022-10-06T22:16:44.895Z,2.20
2022-10-06T22:19:14.231Z,2.13
2022-10-06T22:21:44.615Z,3.37
2022-10-06T22:24:15.407Z,2.30
2022-10-06T22:26:43.412Z,2.37
2022-10-06T22:29:13.768Z,3.30
2022-10-06T22:31:43.164Z,2.63
2022-10-06T22:34:13.198Z,2.40
2022-10-06T22:36:40.266Z,2.73
2022-10-06T22:39:07.723Z,2.50
2022-10-06T22:41:34.796Z,2.73
2022-10-06T22:44:01.802Z,2.43
2022-10-06T22:46:32.453Z,2.80
2022-10-06T22:48:59.812Z,2.90
2022-10-06T22:51:27.154Z,3.73
2022-10-06T22:53:58.295Z,2.87
2022-10-06T22:56:27.476Z,2.60
2022-10-06T22:58:54.958Z,3.13
2022-10-06T23:01:22.161Z,2.70
2022-10-06T23:03:49.161Z,2.83
2022-10-06T23:06:17.930Z,3.23
2022-10-06T23:08:45.219Z,2.60
2022-10-06T23:11:15.507Z,2.30
2022-10-06T23:13:43.391Z,2.90
2022-10-06T23:16:13.712Z,2.57
2022-10-06T23:18:41.814Z,2.27
2022-10-06T23:21:19.250Z,3.00
2022-10-06T23:23:46.974Z,3.00
2022-10-06T23:26:16.087Z,2.70
2022-10-06T23:28:43.296Z,2.10
2022-10-06T23:31:11.498Z,2.50
2022-10-06T23:33:39.035Z,2.47
2022-10-06T23:36:09.995Z,2.20
2022-10-06T23:38:38.187Z,3.00
2022-10-06T23:41:06.786Z,3.03
2022-10-06T23:43:34.260Z,2.20
2022-10-06T23:46:02.607Z,2.93
2022-10-06T23:48:30.235Z,2.20
2022-10-06T23:51:04.739Z,3.17
2022-10-06T23:53:34.131Z,2.63
2022-10-06T23:56:01.591Z,2.53
2022-10-06T23:58:29.035Z,3.10
